createdAt,value
2022-11-24T00:01:28.848Z,103.80
2022-11-24T00:04:05.860Z,101.50
2022-11-24T00:06:35.873Z,101.30
2022-11-24T00:09:05.172Z,103.60
2022-11-24T00:11:35.659Z,108.10
2022-11-24T00:14:05.708Z,102.00
2022-11-24T00:16:36.172Z,102.60
2022-11-24T00:19:08.121Z,106.00
2022-11-24T00:21:37.225Z,107.10
2022-11-24T00:24:06.421Z,105.30
2022-11-24T00:26:37.439Z,99.40
2022-11-24T00:29:07.931Z,99.50
2022-11-24T00:31:41.545Z,99.30
2022-11-24T00:34:14.815Z,102.90
2022-11-24T00:36:43.156Z,96.10
2022-11-24T00:39:15.838Z,100.40
2022-11-24T00:41:44.627Z,102.10
2022-11-24T00:44:12.595Z,104.60
2022-11-24T00:46:41.093Z,100.80
2022-11-24T00:49:09.554Z,101.70
2022-11-24T00:51:37.536Z,103.00
2022-11-24T00:54:06.466Z,104.40
2022-11-24T00:56:34.933Z,102.90
2022-11-24T00:59:03.243Z,98.80
2022-11-24T01:01:31.664Z,102.40
2022-11-24T01:04:03.790Z,102.50
2022-11-24T01:06:33.160Z,105.40
2022-11-24T01:09:01.717Z,103.70
2022-11-24T01:11:51.411Z,99.20
2022-11-24T01:14:20.162Z,102.50
2022-11-24T01:16:48.876Z,106.60
2022-11-24T01:19:16.950Z,100.40
2022-11-24T01:21:44.888Z,104.60
2022-11-24T01:24:13.977Z,105.40
2022-11-24T01:26:42.538Z,107.10
2022-11-24T01:29:12.192Z,108.20
2022-11-24T01:31:40.956Z,105.60
2022-11-24T01:34:08.947Z,106.30
2022-11-24T01:36:36.964Z,106.70
2022-11-24T01:39:05.163Z,110.20
2022-11-24T01:41:36.420Z,109.20
2022-11-24T01:44:28.552Z,105.30
2022-11-24T01:47:08.321Z,113.00
2022-11-24T01:49:36.206Z,117.10
2022-11-24T01:52:07.055Z,113.50
2022-11-24T01:54:41.607Z,112.40
2022-11-24T01:57:19.285Z,112.20
2022-11-24T01:59:50.183Z,114.60
2022-11-24T02:02:21.106Z,115.40
2022-11-24T02:04:51.012Z,122.60
2022-11-24T02:07:19.149Z,117.60
2022-11-24T02:09:54.090Z,112.40
2022-11-24T02:12:24.367Z,126.40
2022-11-24T02:14:53.948Z,130.70
2022-11-24T02:17:22.503Z,125.40
2022-11-24T02:19:59.856Z,123.00
2022-11-24T02:22:51.669Z,122.90
2022-11-24T02:25:25.781Z,129.90
2022-11-24T02:27:56.102Z,125.10
2022-11-24T02:30:24.631Z,125.20
2022-11-24T02:32:52.828Z,125.80
2022-11-24T02:35:21.271Z,126.20
2022-11-24T02:37:49.301Z,133.50
2022-11-24T02:40:25.107Z,128.70
2022-11-24T02:42:58.101Z,124.10
2022-11-24T02:45:27.482Z,124.00
2022-11-24T02:47:55.459Z,125.90
2022-11-24T02:50:23.412Z,132.20
2022-11-24T02:52:51.623Z,118.40
2022-11-24T02:55:20.380Z,128.10
2022-11-24T02:57:48.376Z,121.80
2022-11-24T03:00:16.944Z,133.10
2022-11-24T03:02:45.002Z,128.20
2022-11-24T03:05:13.526Z,119.10
2022-11-24T03:07:41.715Z,128.50
2022-11-24T03:10:09.782Z,125.00
2022-11-24T03:12:37.776Z,125.80
2022-11-24T03:15:06.811Z,124.90
2022-11-24T03:17:37.346Z,123.90
2022-11-24T03:20:05.666Z,123.10
2022-11-24T03:22:33.755Z,133.20
2022-11-24T03:25:01.752Z,130.60
2022-11-24T03:27:31.186Z,127.90
2022-11-24T03:29:59.206Z,126.10
2022-11-24T03:32:27.254Z,133.30
2022-11-24T03:34:55.348Z,134.40
2022-11-24T03:37:23.411Z,126.50
2022-11-24T03:39:51.444Z,128.40
2022-11-24T03:42:19.474Z,129.00
2022-11-24T03:44:47.467Z,133.50
2022-11-24T03:47:15.338Z,132.70
2022-11-24T03:49:43.309Z,125.30
2022-11-24T03:52:11.360Z,129.20
2022-11-24T03:54:39.262Z,125.30
2022-11-24T03:57:07.204Z,127.10
2022-11-24T03:59:35.246Z,131.70
2022-11-24T04:02:03.198Z,124.80
2022-11-24T04:04:31.270Z,120.50
2022-11-24T04:06:59.154Z,123.70
2022-11-24T04:09:27.280Z,122.00
2022-11-24T04:12:13.877Z,117.70
2022-11-24T04:14:41.760Z,124.10
2022-11-24T04:17:09.678Z,126.60
2022-11-24T04:19:37.677Z,127.90
2022-11-24T04:22:05.555Z,127.10
2022-11-24T04:24:33.670Z,122.20
2022-11-24T04:27:01.856Z,131.30
2022-11-24T04:29:29.757Z,126.00
2022-11-24T04:31:57.881Z,129.60
2022-11-24T04:34:25.887Z,124.90
2022-11-24T04:36:53.816Z,127.70
2022-11-24T04:39:26.454Z,131.30
2022-11-24T04:41:56.844Z,130.80
2022-11-24T04:44:24.924Z,122.10
2022-11-24T04:46:52.919Z,120.90
2022-11-24T04:49:21.016Z,128.10
2022-11-24T04:51:48.909Z,121.10
2022-11-24T04:54:19.243Z,122.10
2022-11-24T04:56:50.736Z,122.50
2022-11-24T04:59:19.665Z,119.30
2022-11-24T05:01:47.804Z,127.50
2022-11-24T05:04:16.181Z,126.50
2022-11-24T05:06:44.248Z,125.50
2022-11-24T05:09:17.286Z,114.30
2022-11-24T05:11:45.882Z,120.10
2022-11-24T05:14:14.314Z,120.30
2022-11-24T05:16:42.323Z,122.20
2022-11-24T05:19:10.911Z,128.80
2022-11-24T05:21:39.237Z,121.60
2022-11-24T05:24:07.622Z,124.90
2022-11-24T05:26:35.754Z,126.00
2022-11-24T05:29:03.966Z,124.10
2022-11-24T05:31:31.977Z,113.30
2022-11-24T05:33:59.897Z,105.70
2022-11-24T05:36:46.814Z,109.30
2022-11-24T05:39:15.986Z,118.30
2022-11-24T05:41:44.553Z,128.50
2022-11-24T05:44:12.634Z,118.90
2022-11-24T05:46:41.459Z,117.70
2022-11-24T05:49:09.562Z,122.40
2022-11-24T05:51:38.408Z,120.70
2022-11-24T05:54:06.667Z,124.50
2022-11-24T05:59:19.947Z,125.10
2022-11-24T06:01:48.320Z,119.30
2022-11-24T06:04:16.519Z,115.20
2022-11-24T06:06:46.506Z,119.10
2022-11-24T06:09:14.692Z,111.50
2022-11-24T06:11:43.286Z,120.80
2022-11-24T06:14:11.781Z,123.90
2022-11-24T06:16:40.463Z,124.30
2022-11-24T06:19:10.268Z,120.50
2022-11-24T06:21:38.228Z,125.20
2022-11-24T06:24:06.604Z,124.40
2022-11-24T06:26:34.486Z,124.00
2022-11-24T06:29:02.383Z,121.10
2022-11-24T06:31:30.461Z,118.80
2022-11-24T06:34:00.830Z,120.20
2022-11-24T06:36:28.907Z,122.80
2022-11-24T06:38:57.152Z,130.10
2022-11-24T06:41:25.105Z,110.70
2022-11-24T06:43:53.165Z,117.30
2022-11-24T06:46:21.253Z,115.80
2022-11-24T06:48:52.899Z,113.30
2022-11-24T06:51:20.896Z,120.00
2022-11-24T06:53:49.005Z,114.60
2022-11-24T06:56:19.877Z,111.40
2022-11-24T06:58:50.287Z,113.00
2022-11-24T07:01:21.269Z,114.90
2022-11-24T07:03:50.370Z,109.90
2022-11-24T07:06:19.694Z,116.30
2022-11-24T07:08:47.920Z,121.40
2022-11-24T07:11:18.985Z,120.00
2022-11-24T07:13:47.615Z,116.50
2022-11-24T07:16:23.454Z,113.50
2022-11-24T07:18:53.493Z,121.10
2022-11-24T07:21:23.872Z,128.10
2022-11-24T07:23:54.847Z,133.00
2022-11-24T07:26:23.839Z,125.60
2022-11-24T07:28:53.083Z,129.30
2022-11-24T07:31:25.490Z,130.30
2022-11-24T07:33:55.286Z,134.50
2022-11-24T07:36:24.123Z,132.00
2022-11-24T07:38:52.384Z,126.70
2022-11-24T07:41:22.565Z,124.20
2022-11-24T07:43:51.698Z,125.30
2022-11-24T07:46:20.367Z,125.80
2022-11-24T07:48:48.672Z,122.70
2022-11-24T07:51:16.760Z,117.10
2022-11-24T07:53:46.024Z,124.00
2022-11-24T07:56:14.154Z,126.10
2022-11-24T07:58:42.202Z,119.10
2022-11-24T08:01:18.203Z,113.20
2022-11-24T08:03:47.898Z,115.40
2022-11-24T08:06:28.712Z,119.10
2022-11-24T08:09:00.740Z,122.50
2022-11-24T08:11:31.602Z,112.30
2022-11-24T08:14:00.192Z,104.00
2022-11-24T08:16:28.417Z,114.20
2022-11-24T08:18:56.639Z,116.60
2022-11-24T08:21:25.801Z,122.40
2022-11-24T08:23:55.508Z,117.90
2022-11-24T08:26:25.121Z,123.90
2022-11-24T08:28:56.096Z,121.60
2022-11-24T08:31:27.577Z,130.10
2022-11-24T08:33:56.158Z,130.00
2022-11-24T08:36:24.297Z,127.90
2022-11-24T08:38:57.826Z,126.90
2022-11-24T08:41:27.410Z,138.90
2022-11-24T08:43:56.224Z,127.60
2022-11-24T08:46:24.644Z,123.50
2022-11-24T08:48:54.506Z,124.30
2022-11-24T08:51:26.247Z,137.00
2022-11-24T08:53:56.896Z,141.00
2022-11-24T08:56:26.972Z,125.50
2022-11-24T08:58:56.353Z,122.60
2022-11-24T09:01:25.810Z,118.90
2022-11-24T09:03:54.502Z,131.60
2022-11-24T09:06:26.183Z,127.30
2022-11-24T09:08:55.835Z,118.70
2022-11-24T09:11:25.779Z,124.00
2022-11-24T09:13:56.132Z,126.80
2022-11-24T09:16:29.188Z,128.40
2022-11-24T09:19:06.194Z,122.40
2022-11-24T09:21:38.225Z,122.00
2022-11-24T09:24:08.361Z,123.30
2022-11-24T09:26:44.621Z,124.30
2022-11-24T09:29:17.379Z,137.10
2022-11-24T09:31:46.502Z,133.90
2022-11-24T09:34:16.041Z,132.30
2022-11-24T09:36:44.442Z,135.40
2022-11-24T09:39:12.655Z,143.20
2022-11-24T09:42:00.500Z,130.90
2022-11-24T09:44:59.612Z,133.50
2022-11-24T09:47:46.693Z,140.10
2022-11-24T09:50:20.021Z,146.60
2022-11-24T09:53:03.746Z,135.20
2022-11-24T09:56:00.520Z,133.80
2022-11-24T09:58:51.352Z,128.50
2022-11-24T10:01:23.170Z,124.90
2022-11-24T10:03:53.470Z,122.30
2022-11-24T10:06:26.287Z,127.50
2022-11-24T10:09:37.674Z,131.10
2022-11-24T10:12:16.838Z,120.80
2022-11-24T10:15:01.263Z,120.20
2022-11-24T10:17:47.999Z,129.40
2022-11-24T10:20:44.745Z,130.70
2022-11-24T10:23:39.840Z,126.10
2022-11-24T10:26:15.915Z,121.00
2022-11-24T10:29:13.955Z,119.70
2022-11-24T10:31:44.001Z,129.60
2022-11-24T10:34:25.915Z,139.00
2022-11-24T10:37:12.582Z,138.90
2022-11-24T10:40:04.060Z,126.60
2022-11-24T10:42:37.014Z,144.90
2022-11-24T10:45:13.825Z,149.20
2022-11-24T10:47:44.145Z,141.30
2022-11-24T10:50:22.756Z,142.20
2022-11-24T10:52:56.552Z,137.00
2022-11-24T10:55:24.774Z,139.50
2022-11-24T10:57:53.509Z,143.80
2022-11-24T11:00:22.243Z,134.80
2022-11-24T11:03:12.367Z,138.20
2022-11-24T11:05:43.738Z,134.00
2022-11-24T11:08:14.861Z,143.10
2022-11-24T11:10:45.740Z,138.30
2022-11-24T11:13:25.885Z,138.80
2022-11-24T11:15:54.941Z,136.90
2022-11-24T11:18:30.295Z,139.10
2022-11-24T11:21:02.623Z,140.20
2022-11-24T11:23:34.923Z,142.30
2022-11-24T11:26:37.190Z,138.10
2022-11-24T11:34:50.384Z,136.70
2022-11-24T11:37:20.039Z,129.30
2022-11-24T11:39:50.780Z,131.30
2022-11-24T11:45:35.368Z,140.90
2022-11-24T11:48:03.571Z,137.20
2022-11-24T11:51:06.703Z,133.70
2022-11-24T11:54:08.731Z,139.70
2022-11-24T11:56:45.720Z,137.00
2022-11-24T11:59:47.383Z,134.70
2022-11-24T12:02:36.724Z,143.60
2022-11-24T12:05:29.607Z,135.80
2022-11-24T12:08:10.786Z,136.30
2022-11-24T12:10:50.756Z,142.00
2022-11-24T12:13:38.051Z,144.60
2022-11-24T12:16:29.937Z,142.20
2022-11-24T12:19:10.936Z,138.40
2022-11-24T12:22:10.645Z,143.50
2022-11-24T12:24:59.682Z,147.10
2022-11-24T12:27:40.765Z,144.60
2022-11-24T12:30:13.560Z,149.80
2022-11-24T12:32:47.775Z,137.10
2022-11-24T12:35:18.946Z,144.40
2022-11-24T12:37:59.001Z,148.10
2022-11-24T12:40:46.378Z,152.40
2022-11-24T12:43:34.541Z,149.70
2022-11-24T12:46:38.433Z,138.90
2022-11-24T12:49:26.817Z,144.50
2022-11-24T12:52:21.693Z,147.30
2022-11-24T12:54:51.441Z,155.80
2022-11-24T12:57:34.691Z,145.80
2022-11-24T13:00:24.065Z,135.10
2022-11-24T13:03:23.371Z,148.80
2022-11-24T13:06:15.088Z,142.60
2022-11-24T13:08:44.693Z,150.90
2022-11-24T13:11:48.890Z,153.90
2022-11-24T13:14:23.688Z,148.30
2022-11-24T13:19:41.072Z,154.40
2022-11-24T13:22:09.524Z,153.20
2022-11-24T13:24:40.159Z,154.30
2022-11-24T13:27:24.411Z,150.50
2022-11-24T13:29:53.624Z,157.20
2022-11-24T13:32:24.720Z,161.10
2022-11-24T13:34:55.565Z,162.30
2022-11-24T13:37:26.842Z,163.60
2022-11-24T13:40:14.448Z,157.00
2022-11-24T13:43:01.492Z,164.80
2022-11-24T13:45:39.364Z,167.10
2022-11-24T13:48:20.677Z,164.70
2022-11-24T13:50:55.025Z,160.90
2022-11-24T13:53:35.371Z,159.10
2022-11-24T13:56:09.945Z,153.20
2022-11-24T13:58:43.679Z,166.10
2022-11-24T14:01:32.524Z,163.70
2022-11-24T14:04:31.970Z,155.30
2022-11-24T14:07:12.750Z,146.30
2022-11-24T14:09:44.836Z,149.20
2022-11-24T14:12:19.394Z,148.80
2022-11-24T14:14:50.028Z,144.30
2022-11-24T14:17:24.101Z,148.40
2022-11-24T14:19:54.400Z,144.60
2022-11-24T14:22:37.523Z,144.60
2022-11-24T14:25:07.841Z,150.10
2022-11-24T14:27:39.220Z,156.20
2022-11-24T14:30:12.553Z,163.20
2022-11-24T14:32:53.720Z,158.60
2022-11-24T14:35:35.203Z,165.80
2022-11-24T14:38:06.963Z,166.60
2022-11-24T14:40:55.687Z,160.20
2022-11-24T14:43:33.137Z,150.80
2022-11-24T14:46:10.229Z,155.80
2022-11-24T14:48:51.980Z,155.20
2022-11-24T14:51:26.801Z,152.60
2022-11-24T14:54:03.072Z,152.20
2022-11-24T14:56:39.409Z,149.60
2022-11-24T14:59:26.450Z,142.40
2022-11-24T15:01:55.570Z,150.40
2022-11-24T15:05:00.719Z,161.30
2022-11-24T15:07:27.721Z,164.90
2022-11-24T15:10:01.609Z,158.50
2022-11-24T15:12:42.063Z,154.10
2022-11-24T15:15:13.887Z,148.60
2022-11-24T15:17:52.234Z,146.70
2022-11-24T15:20:32.941Z,152.20
2022-11-24T15:23:25.556Z,153.00
2022-11-24T15:25:57.867Z,151.70
2022-11-24T15:28:26.710Z,157.20
2022-11-24T15:31:16.535Z,164.10
2022-11-24T15:33:45.162Z,172.40
2022-11-24T15:36:15.253Z,161.60
2022-11-24T15:38:43.424Z,164.10
2022-11-24T15:41:25.379Z,155.00
2022-11-24T15:43:59.190Z,145.50
2022-11-24T15:46:29.741Z,164.30
2022-11-24T15:48:58.310Z,154.50
2022-11-24T15:51:28.069Z,152.80
2022-11-24T15:54:01.084Z,156.30
2022-11-24T15:56:35.259Z,171.00
2022-11-24T15:59:04.664Z,167.50
2022-11-24T16:01:36.262Z,171.00
2022-11-24T16:04:04.968Z,160.70
2022-11-24T16:06:33.238Z,165.80
2022-11-24T16:09:01.557Z,169.60
2022-11-24T16:11:29.797Z,162.10
2022-11-24T16:13:57.988Z,160.50
2022-11-24T16:16:26.196Z,160.00
2022-11-24T16:18:54.286Z,168.80
2022-11-24T16:21:23.346Z,166.20
2022-11-24T16:23:51.909Z,162.70
2022-11-24T16:26:20.457Z,153.10
2022-11-24T16:28:48.541Z,155.70
2022-11-24T16:31:18.127Z,166.30
2022-11-24T16:33:46.683Z,158.10
2022-11-24T16:36:15.823Z,152.30
2022-11-24T16:38:44.026Z,151.20
2022-11-24T16:41:13.312Z,154.00
2022-11-24T16:43:41.980Z,156.80
2022-11-24T16:46:19.895Z,156.80
2022-11-24T16:48:51.449Z,154.50
2022-11-24T16:51:22.678Z,150.90
2022-11-24T16:54:02.704Z,159.50
2022-11-24T16:56:32.121Z,151.20
2022-11-24T16:59:01.344Z,159.10
2022-11-24T17:01:30.498Z,152.60
2022-11-24T17:04:00.097Z,148.40
2022-11-24T17:06:29.773Z,164.00
2022-11-24T17:08:58.377Z,158.70
2022-11-24T17:11:30.000Z,150.10
2022-11-24T17:13:59.178Z,156.60
2022-11-24T17:16:27.818Z,170.60
2022-11-24T17:18:58.839Z,182.10
2022-11-24T17:21:28.867Z,177.90
2022-11-24T17:24:00.846Z,169.10
2022-11-24T17:26:29.578Z,170.10
2022-11-24T17:28:58.393Z,171.50
2022-11-24T17:31:30.876Z,176.20
2022-11-24T17:34:00.412Z,163.20
2022-11-24T17:36:32.601Z,163.80
2022-11-24T17:39:04.715Z,164.40
2022-11-24T17:41:34.311Z,164.20
2022-11-24T17:44:03.039Z,173.80
2022-11-24T17:46:31.801Z,176.00
2022-11-24T17:49:00.474Z,177.70
2022-11-24T17:51:29.114Z,172.70
2022-11-24T17:53:57.652Z,177.40
2022-11-24T17:56:27.494Z,170.70
2022-11-24T17:58:58.707Z,169.50
2022-11-24T18:01:32.411Z,166.10
2022-11-24T18:04:01.183Z,173.60
2022-11-24T18:06:29.696Z,163.50
2022-11-24T18:08:59.818Z,156.00
2022-11-24T18:11:32.064Z,163.30
2022-11-24T18:14:04.136Z,160.00
2022-11-24T18:16:35.106Z,170.60
2022-11-24T18:19:09.817Z,160.00
2022-11-24T18:21:44.924Z,165.00
2022-11-24T18:24:14.002Z,160.20
2022-11-24T18:26:43.553Z,164.70
2022-11-24T18:29:12.360Z,164.20
2022-11-24T18:31:41.579Z,162.50
2022-11-24T18:34:10.500Z,162.40
2022-11-24T18:36:39.631Z,177.80
2022-11-24T18:39:10.889Z,174.00
2022-11-24T18:41:40.471Z,166.60
2022-11-24T18:44:12.249Z,180.50
2022-11-24T18:46:41.510Z,190.60
2022-11-24T18:49:11.258Z,204.00
2022-11-24T18:51:40.743Z,190.70
2022-11-24T18:54:09.404Z,180.30
2022-11-24T18:56:39.068Z,183.20
2022-11-24T18:59:10.379Z,186.40
2022-11-24T19:01:40.401Z,198.50
2022-11-24T19:04:09.881Z,187.50
2022-11-24T19:06:39.613Z,184.60
2022-11-24T19:09:21.920Z,192.30
2022-11-24T19:11:55.500Z,190.20
2022-11-24T19:14:31.061Z,198.90
2022-11-24T19:20:17.003Z,206.20
2022-11-24T19:28:36.945Z,210.30
2022-11-24T19:31:38.994Z,207.70
2022-11-24T19:34:13.678Z,225.50
2022-11-24T19:36:45.475Z,226.40
2022-11-24T19:39:15.831Z,212.30
2022-11-24T19:41:44.584Z,194.60
2022-11-24T19:44:22.233Z,214.00
2022-11-24T19:46:54.583Z,220.00
2022-11-24T19:49:25.725Z,215.40
2022-11-24T19:51:55.624Z,202.20
2022-11-24T19:54:25.401Z,180.80
2022-11-24T19:56:55.602Z,195.40
2022-11-24T19:59:27.427Z,190.30
2022-11-24T20:01:58.259Z,196.70
2022-11-24T20:04:33.592Z,183.90
2022-11-24T20:07:03.296Z,181.00
2022-11-24T20:09:50.837Z,182.80
2022-11-24T20:12:22.455Z,189.30
2022-11-24T20:14:53.314Z,186.90
2022-11-24T20:17:28.133Z,175.60
2022-11-24T20:20:05.001Z,182.30
2022-11-24T20:22:38.456Z,183.00
2022-11-24T20:25:08.241Z,179.20
2022-11-24T20:27:36.935Z,194.70
2022-11-24T20:30:06.424Z,188.20
2022-11-24T20:32:34.993Z,223.00
2022-11-24T20:35:04.563Z,204.70
2022-11-24T20:37:34.767Z,231.10
2022-11-24T20:40:04.424Z,219.80
2022-11-24T20:42:32.889Z,223.20
2022-11-24T20:45:01.047Z,225.50
2022-11-24T20:47:30.932Z,199.40
2022-11-24T20:49:59.032Z,186.40
2022-11-24T20:52:27.985Z,186.20
2022-11-24T20:54:57.381Z,202.90
2022-11-24T20:57:26.514Z,201.90
2022-11-24T20:59:58.376Z,181.20
2022-11-24T21:02:34.496Z,192.60
2022-11-24T21:05:14.219Z,196.10
2022-11-24T21:07:45.169Z,210.60
2022-11-24T21:10:13.857Z,210.30
2022-11-24T21:12:42.615Z,198.80
2022-11-24T21:15:11.374Z,203.90
2022-11-24T21:17:39.494Z,204.50
2022-11-24T21:20:10.750Z,208.00
2022-11-24T21:22:40.367Z,202.70
2022-11-24T21:25:09.224Z,197.50
2022-11-24T21:27:38.397Z,198.90
2022-11-24T21:30:07.551Z,195.10
2022-11-24T21:32:35.865Z,187.00
2022-11-24T21:35:05.160Z,185.20
2022-11-24T21:37:35.749Z,180.60
2022-11-24T21:40:06.007Z,184.60
2022-11-24T21:42:34.382Z,184.90
2022-11-24T21:45:02.650Z,171.80
2022-11-24T21:47:31.014Z,180.50
2022-11-24T21:49:59.086Z,179.30
2022-11-24T21:52:27.208Z,169.30
2022-11-24T21:54:55.403Z,177.80
2022-11-24T21:57:23.602Z,163.40
2022-11-24T21:59:52.484Z,178.10
2022-11-24T22:02:20.999Z,168.30
2022-11-24T22:04:50.026Z,187.80
2022-11-24T22:07:18.320Z,172.60
2022-11-24T22:09:46.734Z,178.00
2022-11-24T22:12:14.884Z,179.20
2022-11-24T22:14:43.555Z,187.60
2022-11-24T22:17:15.336Z,182.00
2022-11-24T22:19:43.280Z,179.80
2022-11-24T22:22:12.333Z,175.50
2022-11-24T22:24:41.245Z,180.20
2022-11-24T22:27:10.063Z,186.20
2022-11-24T22:29:38.406Z,192.10
2022-11-24T22:32:07.262Z,183.90
2022-11-24T22:34:35.845Z,182.40
2022-11-24T22:37:04.202Z,190.10
2022-11-24T22:39:32.358Z,193.80
2022-11-24T22:42:00.405Z,178.40
2022-11-24T22:44:29.007Z,181.20
2022-11-24T22:46:57.972Z,188.90
2022-11-24T22:49:26.954Z,191.80
2022-11-24T22:51:54.988Z,181.60
2022-11-24T22:54:23.235Z,181.10
2022-11-24T22:56:51.477Z,188.90
2022-11-24T22:59:20.123Z,202.10
2022-11-24T23:01:49.846Z,173.90
2022-11-24T23:04:17.973Z,208.40
2022-11-24T23:06:46.316Z,221.20
2022-11-24T23:09:14.725Z,242.40
2022-11-24T23:11:42.843Z,201.30
2022-11-24T23:14:15.561Z,184.20
2022-11-24T23:16:44.222Z,204.40
2022-11-24T23:19:12.722Z,221.80
2022-11-24T23:21:40.999Z,184.90
2022-11-24T23:24:10.761Z,191.80
2022-11-24T23:26:40.874Z,217.60
2022-11-24T23:29:10.724Z,241.70
2022-11-24T23:31:40.243Z,218.20
2022-11-24T23:34:09.026Z,211.70
2022-11-24T23:36:37.764Z,204.30
2022-11-24T23:39:08.736Z,222.60
2022-11-24T23:41:36.784Z,179.60
2022-11-24T23:44:04.826Z,162.50
2022-11-24T23:46:33.548Z,207.40
2022-11-24T23:49:01.880Z,209.10
2022-11-24T23:51:31.913Z,235.80
2022-11-24T23:54:00.769Z,170.70
2022-11-24T23:56:32.571Z,168.70
2022-11-24T23:59:02.497Z,188.00
